createdAt,value
2018-05-03T00:00:39.446Z,7.33
2018-05-03T00:05:35.259Z,8.87
2018-05-03T00:10:31.078Z,9.53
2018-05-03T00:15:26.930Z,8.60
2018-05-03T00:20:22.728Z,10.33
2018-05-03T00:25:18.614Z,10.93
2018-05-03T00:30:14.453Z,10.00
2018-05-03T00:35:10.299Z,9.37
2018-05-03T00:40:06.141Z,7.57
2018-05-03T00:45:01.964Z,9.00
2018-05-03T00:49:57.777Z,9.30
2018-05-03T00:54:53.609Z,11.67
2018-05-03T00:59:49.472Z,11.63
2018-05-03T01:04:45.295Z,9.33
2018-05-03T01:09:41.133Z,9.80
2018-05-03T01:14:36.969Z,10.60
2018-05-03T01:19:32.777Z,11.77
2018-05-03T01:24:28.711Z,10.40
2018-05-03T01:29:24.533Z,11.90
2018-05-03T01:34:20.375Z,11.93
2018-05-03T01:39:16.196Z,11.37
2018-05-03T01:44:12.080Z,8.93
2018-05-03T01:49:07.974Z,8.67
2018-05-03T01:54:03.828Z,9.30
2018-05-03T01:58:59.701Z,9.13
2018-05-03T02:03:55.598Z,9.20
2018-05-03T02:08:51.469Z,9.63
2018-05-03T02:13:47.353Z,10.73
2018-05-03T02:18:43.216Z,9.67
2018-05-03T02:23:39.035Z,10.50
2018-05-03T02:28:34.891Z,11.37
2018-05-03T02:33:30.735Z,13.83
2018-05-03T02:38:26.576Z,13.53
2018-05-03T02:43:22.494Z,13.50
2018-05-03T02:48:18.391Z,11.43
2018-05-03T02:53:14.453Z,13.10
2018-05-03T02:58:17.489Z,11.07
2018-05-03T03:03:25.675Z,12.23
2018-05-03T03:14:11.672Z,10.40
2018-05-03T03:19:19.719Z,10.63
2018-05-03T03:24:27.937Z,11.37
2018-05-03T03:29:36.051Z,12.23
2018-05-03T03:34:31.929Z,12.67
2018-05-03T03:39:33.847Z,13.83
2018-05-03T03:44:35.771Z,13.47
2018-05-03T03:49:31.676Z,14.70
2018-05-03T03:54:27.507Z,14.93
2018-05-03T03:59:23.359Z,15.43
2018-05-03T04:04:19.227Z,15.73
2018-05-03T04:09:15.090Z,15.60
2018-05-03T04:14:10.959Z,16.00
2018-05-03T04:19:12.881Z,15.47
2018-05-03T04:24:14.698Z,14.27
2018-05-03T04:29:10.538Z,13.10
2018-05-03T04:34:06.449Z,12.60
2018-05-03T04:39:02.311Z,13.10
2018-05-03T04:43:58.147Z,18.00
2018-05-03T04:48:54.188Z,13.80
2018-05-03T04:53:50.025Z,13.43
2018-05-03T04:58:45.895Z,14.67
2018-05-03T05:03:41.791Z,13.80
2018-05-03T05:08:37.639Z,12.83
2018-05-03T05:13:33.514Z,12.73
2018-05-03T05:18:29.366Z,10.93
2018-05-03T05:23:25.317Z,11.70
2018-05-03T05:28:21.217Z,10.77
2018-05-03T05:33:17.080Z,10.80
2018-05-03T05:38:12.955Z,11.60
2018-05-03T05:43:08.819Z,10.27
2018-05-03T05:48:04.673Z,10.53
2018-05-03T05:53:00.524Z,10.63
2018-05-03T05:57:56.408Z,10.70
2018-05-03T06:02:52.302Z,9.67
2018-05-03T06:07:48.165Z,11.10
2018-05-03T06:12:44.017Z,9.80
2018-05-03T06:17:39.868Z,9.27
2018-05-03T06:22:36.076Z,8.93
2018-05-03T06:27:31.919Z,8.53
2018-05-03T06:32:27.747Z,8.57
2018-05-03T06:37:23.600Z,8.73
2018-05-03T06:42:19.513Z,8.60
2018-05-03T06:47:15.367Z,7.73
2018-05-03T06:52:11.325Z,8.83
2018-05-03T06:57:07.164Z,8.27
2018-05-03T07:02:03.046Z,8.83
2018-05-03T07:06:58.900Z,8.23
2018-05-03T07:11:54.815Z,8.23
2018-05-03T07:16:50.678Z,7.87
2018-05-03T07:21:46.597Z,8.73
2018-05-03T07:26:42.484Z,7.27
2018-05-03T07:31:38.344Z,7.33
2018-05-03T07:36:34.201Z,7.30
2018-05-03T07:41:30.043Z,7.07
2018-05-03T07:46:27.275Z,7.90
2018-05-03T07:51:23.108Z,7.53
2018-05-03T07:56:18.985Z,7.03
2018-05-03T08:01:14.881Z,8.60
2018-05-03T08:06:10.775Z,6.40
2018-05-03T08:11:06.698Z,6.47
2018-05-03T08:16:02.576Z,6.13
2018-05-03T08:20:58.456Z,5.87
2018-05-03T08:25:54.352Z,6.30
2018-05-03T08:30:50.240Z,6.17
2018-05-03T08:35:46.132Z,5.67
2018-05-03T08:40:42.021Z,6.03
2018-05-03T08:45:37.861Z,5.60
2018-05-03T08:50:33.756Z,5.53
2018-05-03T08:55:29.712Z,4.87
2018-05-03T09:00:25.531Z,5.80
2018-05-03T09:05:21.390Z,5.43
2018-05-03T09:10:17.286Z,4.60
2018-05-03T09:15:13.173Z,6.15
2018-05-03T09:20:09.034Z,4.72
2018-05-03T09:25:04.909Z,5.37
2018-05-03T09:30:00.775Z,5.70
2018-05-03T09:34:56.601Z,5.18
2018-05-03T09:39:52.454Z,5.55
2018-05-03T09:44:48.321Z,5.43
2018-05-03T09:49:44.225Z,5.55
2018-05-03T09:54:40.104Z,6.15
2018-05-03T09:59:36.001Z,5.45
2018-05-03T10:04:31.911Z,5.62
2018-05-03T10:09:27.937Z,6.18
2018-05-03T10:14:23.810Z,5.20
2018-05-03T10:19:19.998Z,5.50
2018-05-03T10:24:15.844Z,5.45
2018-05-03T10:29:11.704Z,6.43
2018-05-03T10:34:07.540Z,5.12
2018-05-03T10:39:03.464Z,5.97
2018-05-03T10:43:59.313Z,5.15
2018-05-03T10:48:55.166Z,5.28
2018-05-03T10:53:51.041Z,5.80
2018-05-03T10:58:46.987Z,5.93
2018-05-03T11:03:42.853Z,6.22
2018-05-03T11:08:38.759Z,5.93
2018-05-03T11:13:34.636Z,5.62
2018-05-03T11:18:30.482Z,6.30
2018-05-03T11:23:26.339Z,7.20
2018-05-03T11:28:22.287Z,6.87
2018-05-03T11:33:18.172Z,7.03
2018-05-03T11:38:14.080Z,6.65
2018-05-03T11:43:09.906Z,6.55
2018-05-03T11:48:06.080Z,5.70
2018-05-03T11:53:02.234Z,5.87
2018-05-03T11:57:58.159Z,5.78
2018-05-03T12:02:54.030Z,6.15
2018-05-03T12:07:49.930Z,5.68
2018-05-03T12:12:45.907Z,5.90
2018-05-03T12:17:41.764Z,6.18
2018-05-03T12:22:37.631Z,5.80
2018-05-03T12:27:33.477Z,6.00
2018-05-03T12:32:29.334Z,5.57
2018-05-03T12:37:25.273Z,11.35
2018-05-03T12:42:21.129Z,5.53
2018-05-03T12:47:17.169Z,5.47
2018-05-03T12:52:13.088Z,5.30
2018-05-03T12:57:08.988Z,5.10
2018-05-03T13:02:04.953Z,4.65
2018-05-03T13:07:01.000Z,5.40
2018-05-03T13:11:57.100Z,5.20
2018-05-03T13:16:53.078Z,4.75
2018-05-03T13:21:48.940Z,5.07
2018-05-03T13:26:44.830Z,4.82
2018-05-03T13:31:40.743Z,5.57
2018-05-03T13:36:36.672Z,5.62
2018-05-03T13:41:33.231Z,5.35
2018-05-03T13:46:29.104Z,5.60
2018-05-03T13:51:24.998Z,5.87
2018-05-03T13:56:21.124Z,5.40
2018-05-03T14:01:17.130Z,5.82
2018-05-03T14:06:12.997Z,5.30
2018-05-03T14:11:08.890Z,5.03
2018-05-03T14:16:04.751Z,4.53
2018-05-03T14:21:00.675Z,4.28
2018-05-03T14:25:56.572Z,4.82
2018-05-03T14:30:52.440Z,4.95
2018-05-03T14:35:48.353Z,10.27
2018-05-03T14:40:44.207Z,4.95
2018-05-03T14:45:40.084Z,4.85
2018-05-03T14:50:35.981Z,4.75
2018-05-03T14:55:31.893Z,4.57
2018-05-03T15:00:27.744Z,4.45
2018-05-03T15:05:23.774Z,4.35
2018-05-03T15:10:20.429Z,4.12
2018-05-03T15:15:16.414Z,4.43
2018-05-03T15:20:12.565Z,4.18
2018-05-03T15:25:08.507Z,4.50
2018-05-03T15:30:04.457Z,5.35
2018-05-03T15:35:00.382Z,4.65
2018-05-03T15:39:56.385Z,4.90
2018-05-03T15:44:52.646Z,4.50
2018-05-03T15:49:48.550Z,4.53
2018-05-03T15:54:44.442Z,4.03
2018-05-03T15:59:40.408Z,4.28
2018-05-03T16:04:36.326Z,4.68
2018-05-03T16:09:32.914Z,5.00
2018-05-03T16:14:28.802Z,4.95
2018-05-03T16:19:24.695Z,5.20
2018-05-03T16:24:20.650Z,5.37
2018-05-03T16:29:16.554Z,5.20
2018-05-03T16:34:12.962Z,4.75
2018-05-03T16:39:08.913Z,5.25
2018-05-03T16:44:04.838Z,5.00
2018-05-03T16:49:00.759Z,5.47
2018-05-03T16:53:56.667Z,6.32
2018-05-03T16:58:52.655Z,6.37
2018-05-03T17:03:48.692Z,5.30
2018-05-03T17:08:44.636Z,5.93
2018-05-03T17:13:40.589Z,7.25
2018-05-03T17:18:36.515Z,6.55
2018-05-03T17:23:32.418Z,6.70
2018-05-03T17:28:28.351Z,6.55
2018-05-03T17:33:24.273Z,7.43
2018-05-03T17:38:20.215Z,7.43
2018-05-03T17:43:16.054Z,7.32
2018-05-03T17:48:11.967Z,7.35
2018-05-03T17:53:07.857Z,8.17
2018-05-03T17:58:03.753Z,7.20
2018-05-03T18:02:59.641Z,7.47
2018-05-03T18:07:55.499Z,7.10
2018-05-03T18:12:51.421Z,8.20
2018-05-03T18:17:47.401Z,8.25
2018-05-03T18:22:43.329Z,6.93
2018-05-03T18:27:39.193Z,7.50
2018-05-03T18:32:35.068Z,7.40
2018-05-03T18:37:30.958Z,6.90
2018-05-03T18:42:26.879Z,6.90
2018-05-03T18:47:22.765Z,6.10
2018-05-03T18:52:18.628Z,6.07
2018-05-03T18:57:14.501Z,5.83
2018-05-03T19:02:10.615Z,6.07
2018-05-03T19:07:07.370Z,6.23
2018-05-03T19:12:03.251Z,6.00
2018-05-03T19:16:59.129Z,6.70
2018-05-03T19:21:54.969Z,6.33
2018-05-03T19:26:50.815Z,6.53
2018-05-03T19:31:47.094Z,6.30
2018-05-03T19:36:42.930Z,6.07
2018-05-03T19:41:39.004Z,7.00
2018-05-03T19:46:34.859Z,6.50
2018-05-03T19:51:30.765Z,7.73
2018-05-03T19:56:27.507Z,9.18
2018-05-03T20:01:23.659Z,8.87
2018-05-03T20:06:19.593Z,8.37
2018-05-03T20:11:15.485Z,9.57
2018-05-03T20:16:11.409Z,9.20
2018-05-03T20:21:07.259Z,9.77
2018-05-03T20:26:03.130Z,9.77
2018-05-03T20:30:59.016Z,10.00
2018-05-03T20:35:54.896Z,10.63
2018-05-03T20:41:05.718Z,10.87
2018-05-03T20:46:01.738Z,10.23
2018-05-03T20:50:57.557Z,10.20
2018-05-03T20:55:53.398Z,10.43
2018-05-03T21:00:49.324Z,10.13
2018-05-03T21:05:45.183Z,10.10
2018-05-03T21:10:41.074Z,10.03
2018-05-03T21:15:36.917Z,10.13
2018-05-03T21:20:32.766Z,9.97
2018-05-03T21:25:28.753Z,10.57
2018-05-03T21:30:24.629Z,9.73
2018-05-03T21:35:20.470Z,10.57
2018-05-03T21:40:16.371Z,9.60
2018-05-03T21:45:12.283Z,10.37
2018-05-03T21:50:08.133Z,8.77
2018-05-03T21:55:04.311Z,9.77
2018-05-03T22:00:00.188Z,10.47
2018-05-03T22:04:56.099Z,10.20
2018-05-03T22:09:51.957Z,10.53
2018-05-03T22:14:47.848Z,9.60
2018-05-03T22:19:43.696Z,10.23
2018-05-03T22:24:39.581Z,9.67
2018-05-03T22:29:35.433Z,9.67
2018-05-03T22:34:31.280Z,9.67
2018-05-03T22:39:27.587Z,10.03
2018-05-03T22:44:23.460Z,9.40
2018-05-03T22:49:19.362Z,9.27
2018-05-03T22:54:15.238Z,9.00
2018-05-03T22:59:11.125Z,9.30
2018-05-03T23:04:07.038Z,9.13
2018-05-03T23:09:02.933Z,9.77
2018-05-03T23:13:58.807Z,9.30
2018-05-03T23:18:54.696Z,8.73
2018-05-03T23:23:50.572Z,10.20
2018-05-03T23:28:46.434Z,8.93
2018-05-03T23:33:42.307Z,8.73
2018-05-03T23:38:38.199Z,8.83
2018-05-03T23:43:34.045Z,8.40
2018-05-03T23:48:29.994Z,8.33
2018-05-03T23:53:25.854Z,8.50
2018-05-03T23:58:21.723Z,8.73
